Time;durP1;ratioP1;P1;durP2;ratioP2;P2;SDS_P1;SDS_P2;PMS_P1;PMS_P2;Temp;Humidity;BMP_temperature;BMP_pressure;BME280_temperature;BME280_humidity;BME280_pressure;Samples;Min_cycle;Max_cycle;Signal;HPM_P1;HPM_P2
2022/07/07 00:01:56;;;;;;;1.50;1.02;;;20.80;95.80;;;;;;5025288;28;20231;-82
2022/07/07 00:04:23;;;;;;;1.30;1.13;;;20.80;95.90;;;;;;5012930;28;20218;-84
2022/07/07 00:06:49;;;;;;;1.35;1.23;;;20.80;95.90;;;;;;5023563;28;20198;-84
2022/07/07 00:09:16;;;;;;;1.65;1.00;;;20.80;95.90;;;;;;5021862;28;20203;-83
2022/07/07 00:11:43;;;;;;;1.63;0.82;;;20.80;96.00;;;;;;5029849;28;20732;-83
2022/07/07 00:14:10;;;;;;;1.40;0.97;;;20.80;96.00;;;;;;5027339;28;20678;-82
2022/07/07 00:16:37;;;;;;;4.70;1.20;;;20.70;96.00;;;;;;5020032;28;20677;-82
2022/07/07 00:19:05;;;;;;;6.38;1.30;;;20.70;95.90;;;;;;5024420;28;20461;-83
2022/07/07 00:21:32;;;;;;;1.77;0.93;;;20.70;96.10;;;;;;5026534;28;20223;-83
2022/07/07 00:23:59;;;;;;;1.30;0.88;;;20.70;96.20;;;;;;5022419;28;20255;-81
2022/07/07 00:26:26;;;;;;;1.50;0.80;;;20.70;96.20;;;;;;5024491;28;20207;-84
2022/07/07 00:28:52;;;;;;;3.63;1.00;;;20.70;96.10;;;;;;5026288;28;20470;-82
2022/07/07 00:31:19;;;;;;;2.13;0.93;;;20.70;96.10;;;;;;5022923;28;20205;-83
2022/07/07 00:33:46;;;;;;;2.00;1.10;;;20.70;96.10;;;;;;5016272;28;20831;-83
2022/07/07 00:36:14;;;;;;;1.20;1.00;;;20.70;96.20;;;;;;5021469;28;20207;-82
2022/07/07 00:38:41;;;;;;;1.73;1.10;;;20.70;96.30;;;;;;5024977;28;20950;-81
2022/07/07 00:41:08;;;;;;;1.00;0.80;;;20.70;96.30;;;;;;5021939;28;20370;-82
2022/07/07 00:43:38;;;;;;;3.90;1.67;;;20.70;96.90;;;;;;5022112;28;20192;-82
2022/07/07 00:46:05;;;;;;;8.13;1.58;;;20.70;96.60;;;;;;5022944;28;20202;-82
2022/07/07 00:48:36;;;;;;;4.57;1.42;;;20.70;96.50;;;;;;5030965;28;20200;-81
2022/07/07 00:51:05;;;;;;;1.27;1.17;;;20.70;96.70;;;;;;5020035;28;20199;-83
2022/07/07 00:53:33;;;;;;;1.30;1.00;;;20.60;96.70;;;;;;5026532;28;20744;-82
2022/07/07 00:56:00;;;;;;;3.47;1.17;;;20.60;96.70;;;;;;5027417;28;20195;-81
2022/07/07 00:58:26;;;;;;;1.10;0.80;;;20.60;97.10;;;;;;5026879;28;20205;-84
2022/07/07 01:00:53;;;;;;;1.60;1.15;;;20.60;96.80;;;;;;5029099;28;20286;-82
2022/07/07 01:03:20;;;;;;;5.70;1.40;;;20.60;97.30;;;;;;5033189;28;20222;-82
2022/07/07 01:05:49;;;;;;;1.30;0.90;;;20.60;97.80;;;;;;5026186;28;20245;-83
2022/07/07 01:08:16;;;;;;;1.20;1.08;;;20.60;97.90;;;;;;5030011;28;20218;-83
2022/07/07 01:10:46;;;;;;;2.10;1.10;;;20.60;98.10;;;;;;5029045;28;20625;-83
2022/07/07 01:13:13;;;;;;;2.28;1.30;;;20.60;98.30;;;;;;5031013;28;20226;-83
2022/07/07 01:15:40;;;;;;;1.65;1.33;;;20.60;98.00;;;;;;5031118;28;20195;-83
2022/07/07 01:18:07;;;;;;;1.83;0.90;;;20.50;98.30;;;;;;5025514;28;20207;-83
2022/07/07 01:20:34;;;;;;;3.30;1.05;;;20.50;98.30;;;;;;5028280;28;20227;-85
2022/07/07 01:23:03;;;;;;;3.20;1.90;;;20.50;98.30;;;;;;5021169;28;20311;-83
2022/07/07 01:25:29;;;;;;;1.10;1.00;;;20.50;98.60;;;;;;5026924;28;20244;-83
2022/07/07 01:27:56;;;;;;;1.20;1.10;;;20.50;98.60;;;;;;5025027;28;20250;-82
2022/07/07 01:30:23;;;;;;;1.35;1.23;;;20.50;98.70;;;;;;5028401;28;20196;-83
2022/07/07 01:32:50;;;;;;;1.40;1.10;;;20.50;98.50;;;;;;5021685;28;20207;-83
2022/07/07 01:35:17;;;;;;;1.20;1.10;;;20.50;98.90;;;;;;5025649;28;20202;-83
2022/07/07 01:37:44;;;;;;;1.60;1.23;;;20.50;98.80;;;;;;5025944;28;20207;-83
2022/07/07 01:40:12;;;;;;;2.75;1.10;;;20.50;99.00;;;;;;5031713;28;20211;-83
2022/07/07 01:42:38;;;;;;;1.83;1.08;;;20.50;98.80;;;;;;5031112;28;20697;-81
2022/07/07 01:45:06;;;;;;;1.42;1.33;;;20.50;98.80;;;;;;5029244;28;20273;-84
2022/07/07 01:47:33;;;;;;;1.63;1.52;;;20.50;99.10;;;;;;5029414;28;20651;-83
2022/07/07 01:50:00;;;;;;;2.08;0.80;;;20.50;99.00;;;;;;5031073;28;20194;-83
2022/07/07 01:52:26;;;;;;;1.67;1.20;;;20.40;99.00;;;;;;5023157;28;20210;-83
2022/07/07 01:54:53;;;;;;;1.30;1.10;;;20.40;98.90;;;;;;5028216;28;20207;-83
2022/07/07 01:57:21;;;;;;;1.08;0.93;;;20.40;98.90;;;;;;5024888;28;20214;-84
2022/07/07 01:59:48;;;;;;;3.05;1.13;;;20.40;99.00;;;;;;5028401;28;20655;-86
2022/07/07 02:02:15;;;;;;;1.70;1.23;;;20.40;99.10;;;;;;5030248;28;20237;-84
2022/07/07 02:04:41;;;;;;;2.55;1.58;;;20.40;99.20;;;;;;5022976;28;20206;-85
2022/07/07 02:07:08;;;;;;;2.20;1.40;;;20.40;99.20;;;;;;5027502;28;20220;-85
2022/07/07 02:09:35;;;;;;;3.10;1.08;;;20.40;99.20;;;;;;5028375;28;20215;-86
2022/07/07 02:12:02;;;;;;;3.75;1.20;;;20.40;99.30;;;;;;5016490;28;20209;-85
2022/07/07 02:14:30;;;;;;;1.40;1.20;;;20.40;99.20;;;;;;5030863;28;20210;-85
2022/07/07 02:16:56;;;;;;;1.20;1.10;;;20.40;99.20;;;;;;5023553;28;20202;-85
2022/07/07 02:19:23;;;;;;;1.40;1.17;;;20.40;99.30;;;;;;5026749;28;20207;-85
2022/07/07 02:21:50;;;;;;;2.95;1.50;;;20.40;99.40;;;;;;5028918;28;20226;-86
2022/07/07 02:24:17;;;;;;;1.75;1.40;;;20.30;99.40;;;;;;5029538;28;20213;-86
2022/07/07 02:26:44;;;;;;;1.55;1.00;;;20.30;99.40;;;;;;5028067;28;20210;-86
2022/07/07 02:29:11;;;;;;;1.17;1.08;;;20.30;99.40;;;;;;5031685;28;20215;-86
2022/07/07 02:31:39;;;;;;;1.42;1.20;;;20.30;99.40;;;;;;5028940;28;20568;-87
2022/07/07 02:34:05;;;;;;;1.42;1.20;;;20.30;99.50;;;;;;5026342;28;20205;-85
2022/07/07 02:36:32;;;;;;;1.52;1.10;;;20.30;99.50;;;;;;5014208;28;20230;-86
2022/07/07 02:38:59;;;;;;;1.92;1.30;;;20.30;99.60;;;;;;5017419;28;20206;-84
2022/07/07 02:41:26;;;;;;;1.50;1.17;;;20.30;99.60;;;;;;5026274;28;20217;-85
2022/07/07 02:43:52;;;;;;;1.80;1.52;;;20.30;99.70;;;;;;5024155;28;20199;-86
2022/07/07 02:46:19;;;;;;;2.10;1.15;;;20.30;99.80;;;;;;5026911;28;20207;-85
2022/07/07 02:48:47;;;;;;;2.42;1.45;;;20.30;99.90;;;;;;5021840;28;20200;-86
2022/07/07 02:51:14;;;;;;;2.08;1.30;;;20.30;99.90;;;;;;5021562;28;20198;-85
2022/07/07 02:53:41;;;;;;;1.98;1.30;;;20.30;99.90;;;;;;5027088;28;20225;-86
2022/07/07 02:56:08;;;;;;;1.42;1.30;;;20.30;99.90;;;;;;5023967;28;20196;-86
2022/07/07 02:58:35;;;;;;;2.20;1.27;;;20.30;99.90;;;;;;5025854;28;20582;-86
2022/07/07 03:01:01;;;;;;;1.50;1.40;;;20.20;99.90;;;;;;5025716;28;20201;-86
2022/07/07 03:03:28;;;;;;;2.00;1.50;;;20.20;99.90;;;;;;5023295;28;20237;-86
2022/07/07 03:05:56;;;;;;;1.60;1.40;;;20.20;99.90;;;;;;5018452;28;20203;-85
2022/07/07 03:08:23;;;;;;;2.08;1.60;;;20.20;99.90;;;;;;5028723;28;20204;-85
2022/07/07 03:10:50;;;;;;;1.83;1.50;;;20.20;99.90;;;;;;5025879;28;20210;-84
2022/07/07 03:13:17;;;;;;;2.50;1.40;;;20.20;99.90;;;;;;5015462;28;20214;-85
2022/07/07 03:15:43;;;;;;;1.40;1.30;;;20.20;99.90;;;;;;5023345;28;20199;-85
2022/07/07 03:18:10;;;;;;;2.38;1.60;;;20.20;99.90;;;;;;5027683;28;20205;-85
2022/07/07 03:20:37;;;;;;;1.20;1.10;;;20.20;99.90;;;;;;5027108;28;20583;-84
2022/07/07 03:23:05;;;;;;;2.00;1.40;;;20.20;99.90;;;;;;5028126;28;20215;-86
2022/07/07 03:25:32;;;;;;;1.42;1.00;;;20.10;99.90;;;;;;5024331;28;20207;-85
2022/07/07 03:27:59;;;;;;;1.23;1.08;;;20.10;99.90;;;;;;5021377;28;20215;-86
2022/07/07 03:30:26;;;;;;;1.38;1.13;;;20.10;99.90;;;;;;5023645;28;20650;-85
2022/07/07 03:32:53;;;;;;;1.65;1.30;;;20.10;99.90;;;;;;5026033;28;20213;-85
2022/07/07 03:35:20;;;;;;;1.85;1.40;;;20.10;99.90;;;;;;5025343;28;20233;-86
2022/07/07 03:37:46;;;;;;;1.60;1.30;;;20.10;99.90;;;;;;5024044;28;20202;-85
2022/07/07 03:40:14;;;;;;;1.25;1.10;;;20.10;99.90;;;;;;5021189;28;20226;-85
2022/07/07 03:42:42;;;;;;;1.48;1.35;;;20.10;99.90;;;;;;5023801;28;20420;-86
2022/07/07 03:45:09;;;;;;;1.55;1.13;;;20.10;99.90;;;;;;5016799;28;20206;-85
2022/07/07 03:47:36;;;;;;;1.50;1.40;;;20.10;99.90;;;;;;5020075;28;20296;-86
2022/07/07 03:50:03;;;;;;;1.45;1.10;;;20.10;99.90;;;;;;5020483;28;20198;-83
2022/07/07 03:52:30;;;;;;;1.90;1.60;;;20.10;99.90;;;;;;5025061;28;20198;-84
2022/07/07 03:54:57;;;;;;;1.90;1.35;;;20.10;99.90;;;;;;5015920;28;20216;-84
2022/07/07 03:57:25;;;;;;;3.25;1.27;;;20.10;99.90;;;;;;5024658;28;20203;-85
2022/07/07 03:59:52;;;;;;;2.78;1.65;;;20.10;99.90;;;;;;5030220;28;20198;-85
2022/07/07 04:02:19;;;;;;;2.00;1.80;;;20.10;99.90;;;;;;5019071;28;20449;-84
2022/07/07 04:04:45;;;;;;;2.78;1.80;;;20.10;99.90;;;;;;5021750;28;20202;-85
2022/07/07 04:07:12;;;;;;;1.63;1.40;;;20.00;99.90;;;;;;5020650;28;20209;-85
2022/07/07 04:09:39;;;;;;;2.72;1.58;;;20.00;99.90;;;;;;5024803;28;20212;-85
2022/07/07 04:12:06;;;;;;;1.52;1.30;;;20.00;99.90;;;;;;5016049;28;20571;-85
2022/07/07 04:14:35;;;;;;;1.85;1.55;;;20.00;99.90;;;;;;5029556;28;20205;-85
2022/07/07 04:17:02;;;;;;;2.03;1.63;;;20.00;99.90;;;;;;5025273;28;20197;-85
2022/07/07 04:19:28;;;;;;;1.70;1.40;;;20.00;99.90;;;;;;5031243;28;20205;-85
2022/07/07 04:21:55;;;;;;;2.30;1.85;;;20.00;99.90;;;;;;5023786;28;20202;-85
2022/07/07 04:24:22;;;;;;;2.85;1.60;;;20.00;99.90;;;;;;5030796;28;20300;-83
2022/07/07 04:26:49;;;;;;;1.30;1.20;;;20.00;99.90;;;;;;5027064;28;20209;-85
2022/07/07 04:29:15;;;;;;;3.90;1.88;;;20.00;99.90;;;;;;5029434;28;20635;-85
2022/07/07 04:31:44;;;;;;;2.72;1.88;;;20.00;99.90;;;;;;5030611;28;20200;-83
2022/07/07 04:34:12;;;;;;;2.20;1.70;;;20.00;99.90;;;;;;5034219;28;20232;-85
2022/07/07 04:36:39;;;;;;;4.75;1.85;;;19.90;99.90;;;;;;5016038;28;20198;-83
2022/07/07 04:39:06;;;;;;;2.35;2.15;;;19.90;99.90;;;;;;5027768;28;20203;-83
2022/07/07 04:41:33;;;;;;;1.70;1.20;;;19.90;99.90;;;;;;5018355;28;20201;-84
2022/07/07 04:43:59;;;;;;;2.80;1.73;;;19.90;99.90;;;;;;5029139;28;20308;-85
2022/07/07 04:46:26;;;;;;;2.65;1.58;;;19.90;99.90;;;;;;5030463;28;20736;-84
2022/07/07 04:48:54;;;;;;;2.97;2.17;;;19.90;99.90;;;;;;5029987;28;20745;-84
2022/07/07 04:51:22;;;;;;;2.13;1.85;;;19.90;99.90;;;;;;5024602;28;20855;-87
2022/07/07 04:53:49;;;;;;;1.50;1.40;;;19.90;99.90;;;;;;5023639;28;20215;-84
2022/07/07 04:56:16;;;;;;;1.67;1.52;;;19.90;99.90;;;;;;5025281;28;20284;-85
2022/07/07 04:58:42;;;;;;;2.10;1.50;;;19.90;99.90;;;;;;5028269;28;20200;-85
2022/07/07 05:01:09;;;;;;;2.47;1.58;;;19.90;99.90;;;;;;5020960;28;20224;-85
2022/07/07 05:03:36;;;;;;;1.85;1.63;;;19.80;99.90;;;;;;5028867;28;20626;-87
2022/07/07 05:06:05;;;;;;;1.70;1.58;;;19.80;99.90;;;;;;5026171;28;20197;-87
2022/07/07 05:08:32;;;;;;;2.10;1.90;;;19.80;99.90;;;;;;5029045;28;20204;-86
2022/07/07 05:10:59;;;;;;;3.80;1.70;;;19.80;99.90;;;;;;5030017;28;20219;-87
2022/07/07 05:13:26;;;;;;;2.08;1.95;;;19.80;99.90;;;;;;5028903;28;20200;-86
2022/07/07 05:15:52;;;;;;;2.40;1.88;;;19.80;99.90;;;;;;5023287;28;20205;-85
2022/07/07 05:18:19;;;;;;;4.03;1.23;;;19.80;99.90;;;;;;5020042;28;20294;-85
2022/07/07 05:20:46;;;;;;;3.90;2.10;;;19.80;99.90;;;;;;5029352;28;20208;-86
2022/07/07 05:23:14;;;;;;;1.40;1.30;;;19.80;99.90;;;;;;5028987;28;20223;-85
2022/07/07 05:25:41;;;;;;;2.03;1.75;;;19.80;99.90;;;;;;5024915;28;20687;-83
2022/07/07 05:28:08;;;;;;;2.38;1.35;;;19.80;99.90;;;;;;5019439;28;20441;-85
2022/07/07 05:30:34;;;;;;;2.30;1.85;;;19.80;99.90;;;;;;5028531;28;20201;-85
2022/07/07 05:33:01;;;;;;;1.98;1.80;;;19.80;99.90;;;;;;5028733;28;20194;-86
2022/07/07 05:35:28;;;;;;;2.17;1.58;;;19.80;99.90;;;;;;5032250;28;20204;-86
2022/07/07 05:37:55;;;;;;;1.60;1.50;;;19.70;99.90;;;;;;5023140;28;20674;-83
2022/07/07 05:40:23;;;;;;;1.83;1.33;;;19.70;99.90;;;;;;5032533;28;20192;-85
2022/07/07 05:42:50;;;;;;;1.42;1.20;;;19.70;99.90;;;;;;5029148;28;20582;-85
2022/07/07 05:45:17;;;;;;;2.40;1.35;;;19.70;99.90;;;;;;5024212;28;20207;-85
2022/07/07 05:47:43;;;;;;;1.80;1.40;;;19.70;99.90;;;;;;5028595;28;20200;-84
2022/07/07 05:50:10;;;;;;;1.50;1.40;;;19.70;99.90;;;;;;5022924;28;20518;-84
2022/07/07 05:52:37;;;;;;;2.45;1.40;;;19.70;99.90;;;;;;5019431;28;20772;-86
2022/07/07 05:55:04;;;;;;;1.50;1.10;;;19.70;99.90;;;;;;5026878;28;20208;-83
2022/07/07 05:57:34;;;;;;;1.60;1.20;;;19.70;99.90;;;;;;5022121;28;20198;-84
2022/07/07 06:00:01;;;;;;;3.60;1.55;;;19.70;99.90;;;;;;5027629;28;20231;-85
2022/07/07 06:02:27;;;;;;;3.03;1.65;;;19.70;99.90;;;;;;5027792;28;20219;-85
2022/07/07 06:04:54;;;;;;;1.63;1.52;;;19.70;99.90;;;;;;5017250;28;20196;-85
2022/07/07 06:07:21;;;;;;;3.22;1.58;;;19.70;99.90;;;;;;5015566;28;20189;-85
2022/07/07 06:09:48;;;;;;;2.05;1.40;;;19.70;99.90;;;;;;5026086;28;20196;-85
2022/07/07 06:12:15;;;;;;;2.10;1.50;;;19.70;99.90;;;;;;5021228;28;20212;-85
2022/07/07 06:14:43;;;;;;;1.30;1.20;;;19.70;99.90;;;;;;5026216;28;20558;-85
2022/07/07 06:17:10;;;;;;;2.53;1.90;;;19.70;99.90;;;;;;5022254;28;20731;-85
2022/07/07 06:19:37;;;;;;;2.00;1.52;;;19.80;99.90;;;;;;5024234;28;20231;-86
2022/07/07 06:22:04;;;;;;;1.67;1.30;;;19.80;99.90;;;;;;5028451;28;20301;-86
2022/07/07 06:24:31;;;;;;;1.65;1.35;;;19.80;99.90;;;;;;5014086;28;20643;-85
2022/07/07 06:26:58;;;;;;;1.75;1.42;;;19.70;99.90;;;;;;5023165;28;20207;-83
2022/07/07 06:29:25;;;;;;;2.05;1.15;;;19.70;99.90;;;;;;5017674;28;20208;-85
2022/07/07 06:31:53;;;;;;;2.17;1.27;;;19.80;99.90;;;;;;5027995;28;20203;-84
2022/07/07 06:34:19;;;;;;;1.70;1.35;;;19.80;99.90;;;;;;5021558;28;20188;-84
2022/07/07 06:36:46;;;;;;;1.55;1.30;;;19.80;99.90;;;;;;5015930;28;20205;-84
2022/07/07 06:39:13;;;;;;;1.30;1.20;;;19.80;99.90;;;;;;5019370;28;20483;-86
2022/07/07 06:41:40;;;;;;;2.55;1.27;;;19.80;99.90;;;;;;5016007;28;20197;-85
2022/07/07 06:44:09;;;;;;;2.10;1.50;;;19.80;99.90;;;;;;5030494;28;20223;-84
2022/07/07 06:46:36;;;;;;;1.30;1.20;;;19.70;99.90;;;;;;5022745;28;20203;-86
2022/07/07 06:49:04;;;;;;;1.13;0.95;;;19.80;99.90;;;;;;5031674;28;20196;-84
2022/07/07 06:51:31;;;;;;;1.30;1.20;;;19.80;99.90;;;;;;5022418;28;20204;-84
2022/07/07 06:53:58;;;;;;;1.70;1.50;;;19.80;99.90;;;;;;5020455;28;20652;-85
2022/07/07 06:56:25;;;;;;;1.23;1.00;;;19.80;99.90;;;;;;5025187;28;20220;-85
2022/07/07 06:58:52;;;;;;;1.80;1.00;;;19.80;99.90;;;;;;5025329;28;20211;-82
2022/07/07 07:01:19;;;;;;;1.50;1.00;;;19.80;99.90;;;;;;5025162;28;20203;-85
2022/07/07 07:03:46;;;;;;;2.20;1.45;;;19.80;99.90;;;;;;5018352;28;20404;-86
2022/07/07 07:06:14;;;;;;;1.92;1.10;;;19.80;99.90;;;;;;5023506;28;20203;-85
2022/07/07 07:08:41;;;;;;;2.47;1.00;;;19.80;99.90;;;;;;5025012;28;20259;-86
2022/07/07 07:11:08;;;;;;;1.10;1.00;;;19.70;99.90;;;;;;5028585;28;20249;-87
2022/07/07 07:13:34;;;;;;;1.38;1.13;;;19.70;99.90;;;;;;5029021;28;20200;-88
2022/07/07 07:16:01;;;;;;;1.27;1.15;;;19.60;99.90;;;;;;5024867;28;20204;-88
2022/07/07 07:18:28;;;;;;;1.95;1.10;;;19.60;99.90;;;;;;5026360;28;20217;-86
2022/07/07 07:20:55;;;;;;;1.85;1.73;;;19.60;99.90;;;;;;5028375;28;20209;-86
2022/07/07 07:23:24;;;;;;;1.15;0.90;;;19.60;99.90;;;;;;5021789;28;20228;-87
2022/07/07 07:25:51;;;;;;;2.17;1.17;;;19.60;99.90;;;;;;5018940;28;20664;-86
2022/07/07 07:28:19;;;;;;;1.85;1.00;;;19.70;99.90;;;;;;5025219;28;20225;-84
2022/07/07 07:30:46;;;;;;;1.48;1.25;;;19.70;99.90;;;;;;5025146;28;20205;-87
2022/07/07 07:33:13;;;;;;;1.52;0.90;;;19.70;99.90;;;;;;5018891;28;20545;-85
2022/07/07 07:38:39;;;;;;;1.20;1.00;;;19.80;99.90;;;;;;5015289;28;20201;-85
2022/07/07 07:41:08;;;;;;;2.65;1.10;;;19.80;99.90;;;;;;5024778;28;20194;-84
2022/07/07 07:43:34;;;;;;;1.80;1.15;;;19.80;99.90;;;;;;5021116;28;20222;-85
2022/07/07 07:46:01;;;;;;;1.00;0.90;;;19.90;99.90;;;;;;5022483;28;20669;-87
2022/07/07 07:48:28;;;;;;;1.55;1.10;;;19.90;99.90;;;;;;5026758;28;20207;-84
2022/07/07 07:50:55;;;;;;;2.10;1.00;;;19.90;99.90;;;;;;5026061;28;20206;-86
2022/07/07 07:53:22;;;;;;;1.92;1.10;;;19.90;99.90;;;;;;5024379;28;20222;-86
2022/07/07 07:55:50;;;;;;;1.95;0.82;;;20.00;99.90;;;;;;5025639;28;20201;-83
2022/07/07 07:58:17;;;;;;;1.08;0.90;;;20.00;99.90;;;;;;5022457;28;20212;-84
2022/07/07 08:00:44;;;;;;;1.33;1.10;;;20.00;99.90;;;;;;5025122;28;20202;-84
2022/07/07 08:03:11;;;;;;;1.40;0.80;;;20.10;99.90;;;;;;5021361;28;20229;-85
2022/07/07 08:05:37;;;;;;;1.27;0.90;;;20.10;99.90;;;;;;5031362;28;20206;-84
2022/07/07 08:08:05;;;;;;;1.60;1.10;;;20.10;99.90;;;;;;5022913;28;20292;-85
2022/07/07 08:10:32;;;;;;;1.10;0.80;;;20.10;99.90;;;;;;5021072;28;20611;-85
2022/07/07 08:13:00;;;;;;;2.08;0.95;;;20.10;99.90;;;;;;5028736;28;21173;-84
2022/07/07 08:15:26;;;;;;;1.70;0.98;;;20.10;99.90;;;;;;5024839;28;20900;-83
2022/07/07 08:17:53;;;;;;;1.45;1.02;;;20.10;99.90;;;;;;5021461;28;20209;-87
2022/07/07 08:20:20;;;;;;;0.90;0.80;;;20.10;99.90;;;;;;5030296;28;20205;-87
2022/07/07 08:22:47;;;;;;;1.02;0.82;;;20.10;99.90;;;;;;5028684;28;20194;-86
2022/07/07 08:25:13;;;;;;;1.00;0.80;;;20.00;99.90;;;;;;5019013;28;20267;-85
2022/07/07 08:27:40;;;;;;;1.73;1.00;;;20.10;99.90;;;;;;5028284;28;20410;-85
2022/07/07 08:30:10;;;;;;;1.10;0.90;;;20.20;99.90;;;;;;5022313;28;20678;-86
2022/07/07 08:32:37;;;;;;;1.05;0.85;;;20.20;99.90;;;;;;5029843;28;20281;-86
2022/07/07 08:35:04;;;;;;;1.75;0.95;;;20.30;99.90;;;;;;5028952;28;20658;-85
2022/07/07 08:37:31;;;;;;;1.38;0.85;;;20.30;99.90;;;;;;5024902;28;20201;-86
2022/07/07 08:39:58;;;;;;;1.80;1.02;;;20.20;99.90;;;;;;5022269;28;20197;-85
2022/07/07 08:42:25;;;;;;;1.20;0.98;;;20.20;99.90;;;;;;5030106;28;20567;-86
2022/07/07 08:44:52;;;;;;;1.45;1.17;;;20.20;99.90;;;;;;5027931;28;20224;-86
2022/07/07 08:47:20;;;;;;;1.27;0.80;;;20.20;99.90;;;;;;5028048;28;20227;-86
2022/07/07 08:49:46;;;;;;;2.00;0.95;;;20.10;99.90;;;;;;5029183;28;20207;-86
2022/07/07 08:52:14;;;;;;;1.10;0.80;;;20.10;99.90;;;;;;5036070;28;20212;-84
2022/07/07 08:54:43;;;;;;;1.10;0.80;;;20.10;99.90;;;;;;5022478;28;20195;-85
2022/07/07 08:57:10;;;;;;;1.30;1.00;;;20.10;99.90;;;;;;5023703;28;20216;-85
2022/07/07 08:59:37;;;;;;;1.23;0.98;;;20.10;99.90;;;;;;5026624;28;20223;-84
2022/07/07 09:02:04;;;;;;;1.60;1.00;;;20.10;99.90;;;;;;5012110;28;20219;-84
2022/07/07 09:04:32;;;;;;;1.70;1.08;;;20.30;99.90;;;;;;5027460;28;20724;-83
2022/07/07 09:07:00;;;;;;;1.08;0.90;;;20.40;99.90;;;;;;5028940;28;20556;-84
2022/07/07 09:09:39;;;;;;;1.40;0.82;;;20.50;99.90;;;;;;5015569;28;20294;-84
2022/07/07 09:12:08;;;;;;;1.55;0.98;;;20.60;99.90;;;;;;5020615;28;20611;-84
2022/07/07 09:14:37;;;;;;;3.30;1.00;;;20.60;99.90;;;;;;5030740;28;20681;-84
2022/07/07 09:17:13;;;;;;;1.58;0.80;;;20.50;99.90;;;;;;5015760;28;20343;-84
2022/07/07 09:19:42;;;;;;;3.15;0.77;;;20.50;99.90;;;;;;5032713;28;20620;-85
2022/07/07 09:22:09;;;;;;;1.67;1.17;;;20.50;99.90;;;;;;5016858;28;20664;-85
2022/07/07 09:24:55;;;;;;;1.60;1.20;;;20.40;99.90;;;;;;5028256;28;20227;-85
2022/07/07 09:27:22;;;;;;;3.00;1.08;;;20.60;99.90;;;;;;5031359;28;20199;-83
2022/07/07 09:29:49;;;;;;;1.00;0.80;;;20.70;99.90;;;;;;5019214;28;20204;-84
2022/07/07 09:32:16;;;;;;;2.33;0.98;;;20.80;99.90;;;;;;5025514;28;20558;-85
2022/07/07 09:34:44;;;;;;;1.10;0.88;;;21.00;99.90;;;;;;5030132;28;20210;-85
2022/07/07 09:39:57;;;;;;;1.67;0.90;;;21.10;99.90;;;;;;5027573;28;20225;-87
2022/07/07 09:42:25;;;;;;;1.55;0.80;;;21.20;99.90;;;;;;5028281;28;20578;-85
2022/07/07 09:44:54;;;;;;;1.00;0.80;;;21.20;99.90;;;;;;5030438;28;20227;-83
2022/07/07 09:47:21;;;;;;;3.20;1.00;;;21.10;99.90;;;;;;5025368;28;20755;-84
2022/07/07 09:50:01;;;;;;;1.23;1.10;;;21.00;99.90;;;;;;5021110;28;20208;-85
2022/07/07 09:52:29;;;;;;;1.20;0.90;;;21.00;99.90;;;;;;5018473;28;20552;-85
2022/07/07 09:54:57;;;;;;;1.42;0.90;;;21.00;99.90;;;;;;5026694;28;20557;-85
2022/07/07 09:57:24;;;;;;;1.20;0.90;;;21.10;99.90;;;;;;5021993;28;20200;-86
2022/07/07 09:59:50;;;;;;;1.17;0.90;;;21.10;99.90;;;;;;5016432;28;20206;-84
2022/07/07 10:02:22;;;;;;;1.75;1.00;;;21.10;99.90;;;;;;5020449;28;20215;-85
2022/07/07 10:04:51;;;;;;;1.38;0.80;;;21.20;99.90;;;;;;5024742;28;20227;-88
2022/07/07 10:07:22;;;;;;;1.10;1.00;;;21.20;99.90;;;;;;5028169;28;20211;-86
2022/07/07 10:09:56;;;;;;;1.20;0.70;;;21.10;99.90;;;;;;5028561;28;20204;-86
2022/07/07 10:12:25;;;;;;;4.35;0.95;;;21.00;99.90;;;;;;5028462;28;20258;-88
2022/07/07 10:14:55;;;;;;;1.35;0.95;;;21.00;99.90;;;;;;5028729;28;20208;-86
2022/07/07 10:17:23;;;;;;;1.17;1.00;;;20.90;99.90;;;;;;5028254;28;20210;-85
2022/07/07 10:19:50;;;;;;;1.75;0.80;;;20.80;99.90;;;;;;5027642;28;20195;-86
2022/07/07 10:22:17;;;;;;;1.23;0.93;;;20.80;99.90;;;;;;5022659;28;20584;-85
2022/07/07 10:24:45;;;;;;;1.75;0.90;;;20.80;99.90;;;;;;5017739;28;20224;-86
2022/07/07 10:27:21;;;;;;;1.00;0.70;;;20.80;99.90;;;;;;5022808;28;20208;-87
2022/07/07 10:29:49;;;;;;;1.33;0.82;;;20.90;99.90;;;;;;5024546;28;20597;-88
2022/07/07 10:32:18;;;;;;;1.00;0.73;;;20.90;99.90;;;;;;5021539;28;20692;-86
2022/07/07 10:34:50;;;;;;;1.05;0.95;;;21.00;99.90;;;;;;5026662;28;20465;-87
2022/07/07 10:37:17;;;;;;;1.57;0.90;;;21.00;99.90;;;;;;5023480;28;20379;-86
2022/07/07 10:39:47;;;;;;;1.50;0.85;;;21.10;99.90;;;;;;5020088;28;20450;-86
2022/07/07 10:42:51;;;;;;;1.00;0.75;;;21.10;99.90;;;;;;5025069;28;20620;-87
2022/07/07 10:45:18;;;;;;;1.23;0.73;;;21.10;99.90;;;;;;5016133;28;20238;-87
2022/07/07 10:47:45;;;;;;;1.42;0.90;;;21.10;99.90;;;;;;5021162;28;20205;-87
2022/07/07 10:50:30;;;;;;;2.65;0.88;;;21.00;99.90;;;;;;5025011;28;20424;-86
2022/07/07 10:52:58;;;;;;;1.30;0.77;;;21.00;99.90;;;;;;5025058;28;20231;-88
2022/07/07 10:56:02;;;;;;;1.52;0.75;;;21.00;99.90;;;;;;5019549;28;20199;-86
2022/07/07 10:59:00;;;;;;;2.45;0.93;;;20.90;99.90;;;;;;4962737;28;20201;-86
2022/07/07 11:01:29;;;;;;;1.33;0.88;;;20.80;99.90;;;;;;4887581;29;20211;-87
2022/07/07 11:03:56;;;;;;;1.15;0.80;;;20.80;99.90;;;;;;4991277;28;20268;-86
2022/07/07 11:06:24;;;;;;;0.90;0.63;;;20.80;99.90;;;;;;5031052;28;20199;-87
2022/07/07 11:09:03;;;;;;;1.00;0.80;;;20.80;99.90;;;;;;5022450;28;20207;-85
2022/07/07 11:11:31;;;;;;;1.65;1.00;;;20.80;99.90;;;;;;5026602;28;20454;-87
2022/07/07 11:14:11;;;;;;;1.10;0.70;;;20.90;99.90;;;;;;5021395;28;20207;-88
2022/07/07 11:16:40;;;;;;;1.48;0.80;;;20.90;99.90;;;;;;5028713;28;20650;-87
2022/07/07 11:19:07;;;;;;;2.43;0.90;;;20.90;99.90;;;;;;5026870;28;20306;-85
2022/07/07 11:21:44;;;;;;;1.47;0.70;;;20.90;99.90;;;;;;5025511;28;20519;-87
2022/07/07 11:24:19;;;;;;;1.20;0.80;;;20.90;99.90;;;;;;5026277;28;20450;-86
2022/07/07 11:26:59;;;;;;;1.27;0.60;;;20.90;99.90;;;;;;5013447;28;20202;-86
2022/07/07 11:29:26;;;;;;;2.08;0.80;;;20.90;99.90;;;;;;5027715;28;20469;-87
2022/07/07 11:32:07;;;;;;;0.90;0.63;;;21.00;99.90;;;;;;5026531;28;20969;-88
2022/07/07 11:34:42;;;;;;;1.30;0.80;;;21.00;99.90;;;;;;5027670;28;20227;-87
2022/07/07 11:37:23;;;;;;;1.00;0.75;;;21.00;99.90;;;;;;5021322;28;20468;-88
2022/07/07 11:39:50;;;;;;;1.17;0.73;;;21.10;99.90;;;;;;5019663;28;20203;-88
2022/07/07 11:42:18;;;;;;;1.17;0.82;;;21.10;99.90;;;;;;5027135;28;20635;-87
2022/07/07 11:44:45;;;;;;;1.20;0.70;;;21.10;99.90;;;;;;5028123;28;20809;-85
2022/07/07 11:47:12;;;;;;;2.23;0.77;;;21.10;99.90;;;;;;5026962;28;20474;-87
2022/07/07 11:49:39;;;;;;;1.50;1.00;;;21.10;99.90;;;;;;5028942;28;20442;-87
2022/07/07 11:52:06;;;;;;;1.45;0.80;;;21.10;99.90;;;;;;5028693;28;20214;-87
2022/07/07 11:54:33;;;;;;;1.30;0.70;;;21.10;99.90;;;;;;5022759;28;20194;-85
2022/07/07 11:57:00;;;;;;;1.00;0.70;;;21.10;99.90;;;;;;5027690;28;20469;-87
2022/07/07 11:59:28;;;;;;;1.00;0.70;;;21.10;99.90;;;;;;5028588;28;20481;-86
2022/07/07 12:01:55;;;;;;;1.30;0.70;;;21.10;99.90;;;;;;5021478;28;20502;-87
2022/07/07 12:04:22;;;;;;;3.93;1.00;;;21.10;99.90;;;;;;5025257;28;20201;-86
2022/07/07 12:06:50;;;;;;;1.20;0.80;;;21.10;99.90;;;;;;5028339;28;20824;-85
2022/07/07 12:09:17;;;;;;;1.73;0.70;;;21.00;99.90;;;;;;5022492;28;20474;-86
2022/07/07 12:11:44;;;;;;;1.00;0.60;;;21.00;99.90;;;;;;5024003;28;20545;-85
2022/07/07 12:14:12;;;;;;;1.00;0.80;;;21.00;99.90;;;;;;5027680;28;20214;-87
2022/07/07 12:16:45;;;;;;;1.10;0.80;;;21.00;99.90;;;;;;5020459;28;20207;-87
2022/07/07 12:19:12;;;;;;;1.33;0.70;;;20.90;99.90;;;;;;5020768;28;20204;-87
2022/07/07 12:21:44;;;;;;;1.20;0.73;;;21.00;99.90;;;;;;5022279;28;20203;-85
2022/07/07 12:24:13;;;;;;;1.07;0.70;;;21.00;99.90;;;;;;5020108;28;20637;-86
2022/07/07 12:26:44;;;;;;;1.13;0.70;;;21.00;99.90;;;;;;5026120;28;20462;-87
2022/07/07 12:29:11;;;;;;;1.02;0.73;;;21.00;99.90;;;;;;5019914;28;20234;-86
2022/07/07 12:31:38;;;;;;;1.10;0.60;;;21.10;99.90;;;;;;5021465;28;20199;-86
2022/07/07 12:34:11;;;;;;;1.60;0.80;;;21.10;99.90;;;;;;5024863;28;20203;-86
2022/07/07 12:36:39;;;;;;;1.00;0.73;;;21.20;99.90;;;;;;5023612;28;20465;-86
2022/07/07 12:39:07;;;;;;;1.85;0.70;;;21.20;99.90;;;;;;5021332;28;20293;-88
2022/07/07 12:41:35;;;;;;;1.40;0.90;;;21.20;99.90;;;;;;5028764;28;20218;-89
2022/07/07 12:44:13;;;;;;;0.90;0.70;;;21.20;99.90;;;;;;5023537;28;20454;-86
2022/07/07 12:46:40;;;;;;;0.90;0.60;;;21.20;99.90;;;;;;5027754;28;20254;-86
2022/07/07 12:49:07;;;;;;;2.95;0.80;;;21.20;99.90;;;;;;5027696;28;20682;-87
2022/07/07 12:51:37;;;;;;;3.87;1.07;;;21.30;99.90;;;;;;5033860;28;20239;-86
2022/07/07 12:54:04;;;;;;;0.90;0.80;;;21.30;99.90;;;;;;5024290;28;20516;-87
2022/07/07 12:56:32;;;;;;;0.80;0.60;;;21.30;99.90;;;;;;5029930;28;20945;-86
2022/07/07 12:58:59;;;;;;;1.80;0.80;;;21.30;99.90;;;;;;5032513;28;20462;-86